Time;durP1;ratioP1;P1;durP2;ratioP2;P2;SDS_P1;SDS_P2;PMS_P1;PMS_P2;Temp;Humidity;BMP_temperature;BMP_pressure;BME280_temperature;BME280_humidity;BME280_pressure;Samples;Min_cycle;Max_cycle;Signal;HPM_P1;HPM_P2
2021/11/07 00:03:56;;;;;;;14.80;8.25;;;;;;;5.03;67.30;100209.86;1770902;80;20964;-40
2021/11/07 00:06:26;;;;;;;12.82;8.03;;;;;;;5.07;67.27;100208.70;1749375;80;21048;-39
2021/11/07 00:09:13;;;;;;;13.68;8.35;;;;;;;5.10;67.14;100205.39;1774663;79;21101;-39
2021/11/07 00:11:35;;;;;;;11.20;7.83;;;;;;;5.11;67.12;100211.82;1770554;79;20981;-39
2021/11/07 00:14:00;;;;;;;16.85;8.13;;;;;;;5.16;67.05;100213.05;1744122;80;21536;-39
2021/11/07 00:16:34;;;;;;;14.03;7.85;;;;;;;5.23;67.07;100207.25;1749789;80;21017;-39
2021/11/07 00:19:44;;;;;;;13.80;7.95;;;;;;;5.28;67.01;100197.72;1745377;81;21065;-39
2021/11/07 00:21:27;;;;;;;11.75;8.53;;;;;;;5.30;67.01;100195.54;1732623;81;21914;-39
2021/11/07 00:24:07;;;;;;;13.50;8.55;;;;;;;5.32;67.22;100193.91;1759139;80;21453;-39
2021/11/07 00:26:47;;;;;;;14.45;8.88;;;;;;;5.32;67.00;100191.21;1754881;81;21547;-39
2021/11/07 00:29:08;;;;;;;13.40;7.75;;;;;;;5.31;66.99;100193.10;1740266;81;20954;-40
2021/11/07 00:36:52;;;;;;;13.90;8.33;;;;;;;5.38;66.84;100186.73;1742623;81;21467;-38
2021/11/07 00:41:56;;;;;;;11.57;8.25;;;;;;;5.32;66.91;100187.98;1742274;81;21351;-39
2021/11/07 00:46:48;;;;;;;12.98;8.18;;;;;;;5.24;66.96;100176.03;1731481;81;21092;-39
2021/11/07 00:52:04;;;;;;;12.40;8.43;;;;;;;5.20;67.12;100168.89;1758455;81;21032;-38
2021/11/07 00:54:30;;;;;;;11.83;8.60;;;;;;;5.19;67.07;100165.40;1744487;81;21032;-39
2021/11/07 00:56:55;;;;;;;14.63;8.95;;;;;;;5.12;67.20;100156.17;1760632;80;20994;-39
2021/11/07 01:01:52;;;;;;;14.40;8.73;;;;;;;4.99;67.23;100147.04;1760667;81;21623;-39
2021/11/07 01:04:20;;;;;;;12.73;8.60;;;;;;;4.92;67.38;100152.59;1757428;81;21813;-39
2021/11/07 01:06:47;;;;;;;13.70;8.38;;;;;;;4.88;67.55;100151.07;1745559;81;21017;-39
2021/11/07 01:09:15;;;;;;;15.60;9.00;;;;;;;4.90;67.53;100150.75;1731025;82;21013;-39
2021/11/07 01:11:43;;;;;;;11.68;7.92;;;;;;;4.92;67.58;100139.16;1735914;81;21132;-39
2021/11/07 01:14:11;;;;;;;13.00;8.48;;;;;;;4.90;67.40;100154.77;1756302;81;21028;-39
2021/11/07 01:16:37;;;;;;;15.15;8.68;;;;;;;4.85;67.36;100157.57;1736654;81;21527;-40
2021/11/07 01:19:05;;;;;;;14.93;8.68;;;;;;;4.76;67.49;100150.23;1740240;81;20984;-39
2021/11/07 01:21:36;;;;;;;16.30;8.48;;;;;;;4.71;67.56;100147.66;1739236;80;21100;-39
2021/11/07 01:24:03;;;;;;;12.35;8.53;;;;;;;4.68;67.69;100141.55;1734619;81;21133;-39
2021/11/07 01:26:34;;;;;;;14.03;8.80;;;;;;;4.68;67.70;100128.67;1754486;81;20969;-39
2021/11/07 01:29:10;;;;;;;11.53;8.40;;;;;;;4.69;67.66;100135.09;1758144;81;21029;-39
2021/11/07 01:31:28;;;;;;;14.05;8.93;;;;;;;4.63;67.76;100138.98;1742019;80;21064;-39
2021/11/07 01:33:57;;;;;;;13.10;8.63;;;;;;;4.55;67.88;100132.95;1743563;81;21492;-39
2021/11/07 01:37:12;;;;;;;12.95;8.63;;;;;;;4.47;68.15;100132.32;1735185;81;22050;-39
2021/11/07 01:39:07;;;;;;;14.65;8.63;;;;;;;4.42;68.37;100132.42;1748708;81;21565;-39
2021/11/07 01:44:14;;;;;;;15.32;8.55;;;;;;;4.38;68.41;100126.06;1732527;81;21028;-39
2021/11/07 01:46:46;;;;;;;13.18;9.05;;;;;;;4.33;68.60;100124.28;1753758;81;21025;-39
2021/11/07 01:49:16;;;;;;;13.88;9.03;;;;;;;4.28;68.71;100119.55;1761502;81;21074;-39
2021/11/07 01:51:46;;;;;;;14.07;9.08;;;;;;;4.23;68.78;100125.02;1759211;81;21069;-39
2021/11/07 01:54:27;;;;;;;16.90;9.73;;;;;;;4.18;68.94;100117.07;1760892;81;21080;-39
2021/11/07 01:58:21;;;;;;;13.93;8.93;;;;;;;4.21;69.08;100109.78;1779460;79;22761;-39
2021/11/07 02:00:50;;;;;;;11.68;8.90;;;;;;;4.13;69.17;100110.46;1733724;81;21538;-39
2021/11/07 02:03:16;;;;;;;15.15;9.20;;;;;;;4.12;69.12;100105.64;1753473;81;21833;-39
2021/11/07 02:05:43;;;;;;;14.85;9.60;;;;;;;4.11;69.22;100109.98;1755956;81;21052;-39
2021/11/07 02:08:10;;;;;;;13.13;9.38;;;;;;;4.07;69.25;100107.08;1722178;83;21003;-39
2021/11/07 02:10:38;;;;;;;14.05;9.60;;;;;;;4.04;69.29;100100.17;1722135;83;20952;-39
2021/11/07 02:13:05;;;;;;;13.93;9.28;;;;;;;4.07;69.35;100099.57;1721363;83;20952;-39
2021/11/07 02:15:33;;;;;;;14.20;8.78;;;;;;;4.11;69.35;100105.95;1696953;84;21060;-39
2021/11/07 02:18:00;;;;;;;13.58;9.38;;;;;;;4.13;69.36;100106.44;1696694;84;20969;-39
2021/11/07 02:20:30;;;;;;;13.20;8.98;;;;;;;4.11;69.25;100105.41;1710267;81;21027;-39
2021/11/07 02:22:59;;;;;;;13.70;9.03;;;;;;;4.07;69.21;100106.27;1678763;83;21519;-39
2021/11/07 02:25:26;;;;;;;12.58;8.53;;;;;;;4.01;69.26;100104.81;1687198;83;21492;-38
2021/11/07 02:27:54;;;;;;;16.55;8.93;;;;;;;4.01;69.19;100108.83;1694976;84;21058;-38
2021/11/07 02:30:21;;;;;;;14.13;8.23;;;;;;;4.03;69.33;100103.95;1705985;83;21057;-38
2021/11/07 02:32:49;;;;;;;11.28;8.55;;;;;;;4.09;69.33;100106.78;1695332;83;21896;-39
2021/11/07 02:35:17;;;;;;;12.15;8.80;;;;;;;4.12;69.24;100108.86;1696037;83;21050;-38
2021/11/07 02:37:43;;;;;;;15.53;9.88;;;;;;;4.12;69.12;100112.34;1714063;83;21567;-38
2021/11/07 02:40:12;;;;;;;12.63;8.95;;;;;;;4.07;69.00;100114.33;1712474;83;21112;-38
2021/11/07 02:42:43;;;;;;;13.38;8.88;;;;;;;4.02;69.03;100125.95;1705651;83;21030;-38
2021/11/07 02:45:12;;;;;;;12.88;8.43;;;;;;;3.99;69.01;100119.84;1704913;83;21040;-38
2021/11/07 02:47:39;;;;;;;11.68;8.50;;;;;;;4.01;69.06;100121.70;1686201;84;21008;-39
2021/11/07 02:50:08;;;;;;;12.93;8.85;;;;;;;4.06;69.00;100120.81;1713535;82;21052;-39
2021/11/07 02:52:35;;;;;;;;;;;;;;;4.07;68.98;100117.81;1695235;83;21117;-39
2021/11/07 02:55:03;;;;;;;13.05;8.90;;;;;;;4.10;68.93;100112.41;1705802;83;20135;-39
2021/11/07 02:57:30;;;;;;;12.20;8.85;;;;;;;4.04;69.07;100113.59;1685168;84;21034;-39
2021/11/07 03:00:04;;;;;;;15.00;9.50;;;;;;;4.08;68.88;100109.22;1697442;84;21053;-38
2021/11/07 03:02:29;;;;;;;15.05;9.33;;;;;;;4.14;68.78;100121.45;1686021;83;21053;-39
2021/11/07 03:04:56;;;;;;;11.83;8.30;;;;;;;4.23;68.52;100121.00;1680062;84;21122;-39
2021/11/07 03:07:22;;;;;;;11.48;7.72;;;;;;;4.36;68.11;100112.14;1679389;84;21841;-39
2021/11/07 03:09:49;;;;;;;14.05;8.55;;;;;;;4.42;67.64;100110.95;1693456;84;20973;-38
2021/11/07 03:12:16;;;;;;;14.40;8.75;;;;;;;4.41;67.46;100114.72;1702468;83;20992;-39
2021/11/07 03:14:47;;;;;;;13.03;9.55;;;;;;;4.40;67.27;100117.18;1678817;84;20962;-39
2021/11/07 03:17:19;;;;;;;12.40;8.93;;;;;;;4.35;67.20;100109.23;1721450;82;21623;-39
2021/11/07 03:19:47;;;;;;;13.15;8.90;;;;;;;4.31;67.20;100112.23;1699902;83;21016;-39
2021/11/07 03:22:17;;;;;;;11.83;9.03;;;;;;;4.27;67.14;100105.88;1712744;82;21005;-38
2021/11/07 03:24:44;;;;;;;12.10;8.93;;;;;;;4.20;67.25;100105.50;1710456;83;21077;-38
2021/11/07 03:27:19;;;;;;;12.00;9.00;;;;;;;4.12;67.51;100102.95;1701379;83;21101;-38
2021/11/07 03:29:51;;;;;;;13.53;9.33;;;;;;;4.08;67.70;100105.98;1712407;83;21977;-39
2021/11/07 03:32:23;;;;;;;11.20;8.15;;;;;;;4.06;67.77;100104.17;1748729;82;21544;-39
2021/11/07 03:34:55;;;;;;;13.55;9.35;;;;;;;4.02;67.98;100102.38;1714797;83;21016;-38
2021/11/07 03:37:27;;;;;;;13.55;8.88;;;;;;;3.98;67.99;100102.16;1748885;81;20969;-39
2021/11/07 03:39:57;;;;;;;;;;;;;;;3.93;67.93;100100.91;1729057;81;21001;-38
2021/11/07 03:42:24;;;;;;;12.88;9.23;;;;;;;3.86;68.06;100102.66;1741410;82;21302;-38
2021/11/07 03:44:51;;;;;;;13.32;9.30;;;;;;;3.68;68.45;100098.72;1743089;82;21029;-38
2021/11/07 03:47:18;;;;;;;14.03;8.55;;;;;;;3.67;68.50;100095.78;1726667;80;21487;-39
2021/11/07 03:49:45;;;;;;;17.15;9.45;;;;;;;3.65;68.46;100101.42;1735830;81;21016;-39
2021/11/07 03:52:12;;;;;;;12.53;9.03;;;;;;;3.69;68.42;100093.03;1732093;82;21053;-39
2021/11/07 03:54:40;;;;;;;13.72;9.10;;;;;;;3.74;68.45;100100.99;1722513;80;21151;-39
2021/11/07 03:57:10;;;;;;;17.65;10.58;;;;;;;3.73;68.60;100098.05;1750851;81;20996;-39
2021/11/07 03:59:40;;;;;;;12.88;9.85;;;;;;;3.71;68.46;100098.91;1750141;81;21223;-38
2021/11/07 04:02:08;;;;;;;;;;;;;;;3.66;68.39;100092.84;1757264;81;21040;-38
2021/11/07 04:04:34;;;;;;;14.68;9.98;;;;;;;3.60;68.47;100090.79;1756410;81;20470;-38
2021/11/07 04:07:01;;;;;;;15.13;9.40;;;;;;;3.49;68.74;100094.73;1720118;82;21815;-39
2021/11/07 04:09:27;;;;;;;13.58;9.20;;;;;;;3.42;68.85;100090.31;1691359;83;21016;-38
2021/11/07 04:11:54;;;;;;;12.88;9.48;;;;;;;3.37;69.06;100085.83;1697757;83;21053;-38
2021/11/07 04:14:21;;;;;;;12.98;9.23;;;;;;;3.40;69.19;100084.44;1690548;83;21399;-39
2021/11/07 04:16:47;;;;;;;16.40;10.58;;;;;;;3.45;69.26;100080.33;1694184;83;21112;-38
2021/11/07 04:19:14;;;;;;;15.90;10.13;;;;;;;3.44;69.40;100074.17;1714203;83;21112;-38
2021/11/07 04:21:44;;;;;;;16.57;10.82;;;;;;;3.45;69.48;100070.95;1717306;83;21526;-38
2021/11/07 04:24:09;;;;;;;14.50;10.45;;;;;;;3.47;69.47;100070.13;1719727;83;21015;-38
2021/11/07 04:26:36;;;;;;;15.38;10.18;;;;;;;3.46;69.44;100068.52;1713829;83;20941;-38
2021/11/07 04:29:03;;;;;;;14.87;10.45;;;;;;;3.44;69.51;100067.47;1720557;83;21012;-45
2021/11/07 04:31:32;;;;;;;14.73;9.98;;;;;;;3.43;69.40;100065.91;1692526;83;21204;-39
2021/11/07 04:33:58;;;;;;;14.40;9.53;;;;;;;3.42;69.44;100078.25;1692497;83;21271;-38
2021/11/07 04:36:25;;;;;;;15.10;9.93;;;;;;;3.41;69.54;100083.35;1691757;83;21019;-38
2021/11/07 04:38:52;;;;;;;15.48;10.55;;;;;;;3.34;69.69;100078.94;1696949;83;21913;-38
2021/11/07 04:41:19;;;;;;;14.43;10.50;;;;;;;3.28;69.87;100084.12;1720038;83;21778;-38
2021/11/07 04:43:47;;;;;;;17.65;11.12;;;;;;;3.19;70.10;100082.66;1719580;83;21160;-39
2021/11/07 04:46:17;;;;;;;15.43;10.90;;;;;;;3.12;70.40;100080.88;1707455;82;20966;-38
2021/11/07 04:48:44;;;;;;;14.40;10.43;;;;;;;3.06;70.58;100088.20;1715734;82;20980;-37
2021/11/07 04:51:11;;;;;;;18.62;10.63;;;;;;;3.05;70.71;100086.60;1704879;82;21028;-37
2021/11/07 04:53:38;;;;;;;17.42;11.12;;;;;;;3.05;70.75;100093.84;1710349;82;21544;-38
2021/11/07 04:56:06;;;;;;;17.32;11.68;;;;;;;3.00;70.88;100089.92;1694619;82;21547;-38
2021/11/07 04:58:36;;;;;;;14.80;10.98;;;;;;;2.94;71.08;100090.55;1688384;83;20976;-38
2021/11/07 05:01:03;;;;;;;15.75;10.48;;;;;;;2.89;71.22;100094.64;1706912;84;20949;-38
2021/11/07 05:03:30;;;;;;;16.52;11.12;;;;;;;2.90;71.37;100092.22;1742724;81;21512;-38
2021/11/07 05:05:57;;;;;;;15.35;10.90;;;;;;;2.94;71.18;100093.77;1735577;82;21045;-38
2021/11/07 05:08:24;;;;;;;16.32;11.45;;;;;;;2.93;71.29;100098.31;1717266;80;21737;-38
2021/11/07 05:10:51;;;;;;;14.18;9.93;;;;;;;2.92;71.30;100098.06;1729547;82;21024;-39
2021/11/07 05:13:18;;;;;;;14.60;10.45;;;;;;;2.88;71.27;100094.37;1682366;83;21036;-38
2021/11/07 05:15:44;;;;;;;13.60;9.83;;;;;;;2.86;71.38;100093.05;1714058;82;21009;-38
2021/11/07 05:18:11;;;;;;;14.33;10.30;;;;;;;2.89;71.31;100097.85;1736029;82;21056;-38
2021/11/07 05:20:38;;;;;;;17.90;11.22;;;;;;;2.93;71.22;100095.64;1729982;81;21500;-38
2021/11/07 05:23:04;;;;;;;20.55;12.15;;;;;;;2.93;71.18;100098.86;1725889;82;20922;-38
2021/11/07 05:25:31;;;;;;;15.05;11.12;;;;;;;2.91;71.19;100088.42;1723803;82;20969;-38
2021/11/07 05:27:57;;;;;;;16.90;11.25;;;;;;;2.88;71.23;100086.34;1740480;81;21525;-38
2021/11/07 05:30:24;;;;;;;15.85;10.85;;;;;;;2.90;71.30;100080.16;1713922;82;21108;-38
2021/11/07 05:32:50;;;;;;;14.75;10.80;;;;;;;2.94;71.14;100082.51;1713918;82;21272;-38
2021/11/07 05:35:19;;;;;;;13.40;9.70;;;;;;;3.03;70.93;100079.95;1715384;81;21021;-38
2021/11/07 05:37:47;;;;;;;13.60;10.30;;;;;;;3.14;70.77;100091.31;1724505;82;20989;-39
2021/11/07 05:40:14;;;;;;;15.70;11.08;;;;;;;3.18;70.64;100091.78;1742289;82;21006;-38
2021/11/07 05:42:41;;;;;;;17.45;11.22;;;;;;;3.19;70.63;100096.05;1733135;82;21022;-38
2021/11/07 05:45:08;;;;;;;15.32;11.80;;;;;;;3.19;70.49;100093.38;1732155;82;22632;-39
2021/11/07 05:47:34;;;;;;;16.95;11.68;;;;;;;3.16;70.49;100089.13;1734682;82;21050;-39
2021/11/07 05:50:01;;;;;;;15.15;10.88;;;;;;;3.14;70.58;100092.66;1735705;82;21025;-38
2021/11/07 05:52:30;;;;;;;14.87;10.75;;;;;;;3.15;70.61;100082.97;1741124;82;21054;-39
2021/11/07 05:54:58;;;;;;;15.88;11.40;;;;;;;3.26;70.53;100084.95;1743599;81;21014;-41
2021/11/07 05:57:25;;;;;;;15.25;11.38;;;;;;;3.34;70.38;100084.29;1744054;81;21170;-39
2021/11/07 05:59:52;;;;;;;14.25;10.88;;;;;;;3.38;70.34;100087.43;1749946;81;21476;-39
2021/11/07 06:02:18;;;;;;;17.40;11.70;;;;;;;3.42;70.35;100079.59;1751097;80;20990;-39
2021/11/07 06:04:45;;;;;;;15.93;10.95;;;;;;;3.48;70.26;100086.46;1726254;81;21552;-38
2021/11/07 06:07:12;;;;;;;15.50;11.12;;;;;;;3.50;70.15;100084.27;1753875;81;21095;-38
2021/11/07 06:09:38;;;;;;;15.90;10.15;;;;;;;3.55;70.12;100088.73;1754886;81;21135;-39
2021/11/07 06:12:07;;;;;;;17.30;11.45;;;;;;;3.66;70.07;100088.28;1743202;80;21009;-39
2021/11/07 06:14:36;;;;;;;15.68;10.82;;;;;;;3.75;69.89;100090.52;1758015;80;21016;-38
2021/11/07 06:17:04;;;;;;;17.25;11.68;;;;;;;3.78;69.90;100090.46;1756662;81;21033;-39
2021/11/07 06:19:31;;;;;;;18.73;12.30;;;;;;;3.81;70.00;100098.73;1756487;81;21669;-38
2021/11/07 06:21:57;;;;;;;17.60;11.95;;;;;;;3.82;69.98;100098.98;1756586;81;21106;-38
2021/11/07 06:24:29;;;;;;;14.98;11.18;;;;;;;3.83;70.08;100095.19;1756365;81;21020;-38
2021/11/07 06:26:55;;;;;;;15.95;11.40;;;;;;;3.93;69.96;100096.89;1756082;81;20966;-39
2021/11/07 06:29:21;;;;;;;17.73;10.72;;;;;;;4.05;69.75;100093.18;1752727;81;21052;-38
2021/11/07 06:31:54;;;;;;;20.80;11.88;;;;;;;4.18;69.57;100106.34;1752928;80;21012;-38
2021/11/07 06:34:19;;;;;;;15.43;11.83;;;;;;;4.23;69.57;100092.27;1754868;81;21143;-39
2021/11/07 06:36:46;;;;;;;15.08;10.98;;;;;;;4.30;69.51;100091.34;1756425;81;20933;-38
2021/11/07 06:39:13;;;;;;;18.50;11.85;;;;;;;4.35;69.46;100090.44;1756232;81;21012;-39
2021/11/07 06:41:40;;;;;;;20.10;11.80;;;;;;;4.38;69.36;100075.86;1751587;81;21055;-39
2021/11/07 06:44:06;;;;;;;16.97;11.45;;;;;;;4.43;69.42;100074.95;1732870;81;21052;-38
2021/11/07 06:46:35;;;;;;;15.58;10.95;;;;;;;4.53;69.33;100073.94;1737793;81;21073;-38
2021/11/07 06:49:04;;;;;;;14.90;11.18;;;;;;;4.64;69.34;100070.75;1752646;81;21029;-38
2021/11/07 06:51:31;;;;;;;16.07;11.85;;;;;;;4.74;69.35;100064.35;1756816;81;21082;-38
2021/11/07 06:53:58;;;;;;;15.00;11.03;;;;;;;4.84;69.28;100063.33;1755839;81;21006;-38
2021/11/07 06:56:26;;;;;;;17.30;11.45;;;;;;;4.93;69.08;100058.81;1775528;80;21044;-38
2021/11/07 06:58:52;;;;;;;18.20;12.20;;;;;;;4.99;68.63;100056.22;1738127;80;21189;-38
2021/11/07 07:01:19;;;;;;;17.57;12.78;;;;;;;5.03;68.57;100059.91;1729852;81;20963;-38
2021/11/07 07:03:45;;;;;;;17.73;12.45;;;;;;;5.05;68.41;100056.36;1743270;82;21526;-38
2021/11/07 07:06:12;;;;;;;17.90;11.95;;;;;;;5.12;68.25;100049.47;1746067;80;21586;-39
2021/11/07 07:08:47;;;;;;;17.82;11.55;;;;;;;5.24;67.96;100050.23;1732038;80;21013;-39
2021/11/07 07:11:20;;;;;;;15.38;11.80;;;;;;;5.33;67.55;100049.73;1719246;81;20962;-38
2021/11/07 07:13:54;;;;;;;14.15;11.78;;;;;;;5.40;67.81;100052.00;1742049;81;20926;-38
2021/11/07 07:21:37;;;;;;;17.40;11.55;;;;;;;5.71;67.19;100038.01;1731444;80;21041;-38
2021/11/07 07:31:45;;;;;;;17.82;12.50;;;;;;;6.39;66.00;100021.25;1738434;81;21001;-38
2021/11/07 07:34:08;;;;;;;18.57;12.50;;;;;;;6.53;65.28;100023.83;1728207;82;21021;-38
2021/11/07 07:36:35;;;;;;;18.02;12.30;;;;;;;6.65;64.83;100019.94;1738230;81;21148;-38
2021/11/07 07:39:03;;;;;;;17.27;12.07;;;;;;;6.74;64.46;100015.88;1726331;81;21033;-39
2021/11/07 07:41:29;;;;;;;15.53;11.20;;;;;;;6.80;64.24;100018.11;1721647;82;21022;-38
2021/11/07 07:43:57;;;;;;;16.65;11.33;;;;;;;6.87;64.17;100023.03;1738324;82;21503;-38
2021/11/07 07:46:25;;;;;;;17.55;12.30;;;;;;;6.96;64.36;100019.77;1724532;81;21081;-38
2021/11/07 07:48:54;;;;;;;16.93;11.83;;;;;;;7.12;63.73;100029.48;1742883;81;21194;-37
2021/11/07 07:51:22;;;;;;;16.00;11.05;;;;;;;7.22;63.57;100020.50;1740765;82;21029;-38
2021/11/07 07:53:49;;;;;;;16.35;11.78;;;;;;;7.34;63.75;100017.95;1736354;80;20975;-39
2021/11/07 07:56:16;;;;;;;16.40;12.45;;;;;;;7.49;63.42;100014.49;1737489;81;21030;-38
2021/11/07 07:58:43;;;;;;;15.98;11.33;;;;;;;7.64;63.25;100020.16;1744207;81;21500;-37
2021/11/07 08:01:10;;;;;;;18.77;12.95;;;;;;;7.79;62.51;100016.13;1744652;81;21057;-38
2021/11/07 08:03:38;;;;;;;18.77;12.82;;;;;;;7.91;62.52;100011.38;1724291;81;21065;-38
2021/11/07 08:06:04;;;;;;;19.77;10.82;;;;;;;8.03;62.05;100011.48;1713044;83;20954;-37
2021/11/07 08:08:31;;;;;;;14.40;11.65;;;;;;;8.17;61.70;100006.63;1732539;82;21077;-37
2021/11/07 08:10:57;;;;;;;15.80;11.38;;;;;;;8.27;61.34;100019.20;1742740;82;21535;-37
2021/11/07 08:13:26;;;;;;;17.95;12.20;;;;;;;8.37;61.29;100014.56;1726533;82;21081;-37
2021/11/07 08:15:55;;;;;;;17.40;10.90;;;;;;;8.42;61.17;100014.37;1734324;82;20993;-40
2021/11/07 08:18:22;;;;;;;18.80;11.90;;;;;;;8.51;61.48;100011.04;1724282;81;21038;-39
2021/11/07 08:20:49;;;;;;;14.95;10.88;;;;;;;8.63;61.16;99998.92;1726902;82;21014;-40
2021/11/07 08:23:17;;;;;;;17.05;11.90;;;;;;;8.79;60.41;100002.62;1741885;82;21519;-39
2021/11/07 08:25:44;;;;;;;15.23;10.85;;;;;;;8.89;59.90;100000.86;1737554;82;21149;-40
2021/11/07 08:28:11;;;;;;;19.32;11.20;;;;;;;8.93;59.76;99996.36;1741256;81;20927;-40
2021/11/07 08:30:40;;;;;;;16.00;11.00;;;;;;;8.91;59.55;99983.72;1742980;82;20932;-40
2021/11/07 08:33:08;;;;;;;13.53;11.13;;;;;;;8.89;59.69;99981.14;1737374;81;21009;-39
2021/11/07 08:35:39;;;;;;;16.15;11.15;;;;;;;8.87;60.15;99969.84;1735266;82;21620;-40
2021/11/07 08:38:06;;;;;;;14.35;11.65;;;;;;;8.87;60.05;99972.00;1711334;82;21118;-39
2021/11/07 08:40:41;;;;;;;13.90;10.60;;;;;;;8.89;60.26;99964.35;1678127;83;20972;-39
2021/11/07 08:43:10;;;;;;;12.60;9.65;;;;;;;9.01;60.27;99960.88;1728064;81;20965;-40
2021/11/07 09:05:02;;;;;;;15.68;10.68;;;;;;;9.80;57.42;99942.82;1740512;81;21876;-39
2021/11/07 09:10:06;;;;;;;15.30;11.22;;;;;;;9.71;57.95;99931.32;1741573;81;21097;-39
2021/11/07 09:12:33;;;;;;;15.38;11.20;;;;;;;9.79;58.02;99932.31;1739882;82;21010;-39
2021/11/07 09:15:01;;;;;;;13.62;10.08;;;;;;;9.90;57.72;99930.17;1730244;81;21015;-39
2021/11/07 09:17:29;;;;;;;12.37;9.78;;;;;;;10.00;57.09;99927.56;1740531;82;21803;-40
2021/11/07 09:19:57;;;;;;;15.23;11.25;;;;;;;10.10;56.33;99920.88;1740680;81;20922;-39
2021/11/07 09:22:43;;;;;;;15.75;10.68;;;;;;;10.15;56.19;99916.58;1737429;82;20982;-40
2021/11/07 09:25:16;;;;;;;12.90;10.05;;;;;;;10.19;56.19;99908.02;1725671;80;21488;-40
2021/11/07 09:30:12;;;;;;;14.47;10.20;;;;;;;10.33;56.30;99906.50;1743091;81;21814;-39
2021/11/07 09:32:54;;;;;;;14.40;10.30;;;;;;;10.42;55.65;99891.45;1726940;81;21022;-41
2021/11/07 09:35:35;;;;;;;14.23;10.68;;;;;;;10.50;55.25;99887.81;1735557;81;21034;-39
2021/11/07 09:38:07;;;;;;;14.68;10.68;;;;;;;10.66;54.74;99877.78;1713866;82;21017;-40
2021/11/07 09:40:32;;;;;;;15.55;11.05;;;;;;;10.87;54.39;99864.79;1716094;81;21124;-39
2021/11/07 09:45:57;;;;;;;13.10;9.78;;;;;;;11.30;53.93;99867.19;1734732;81;21567;-40
2021/11/07 09:48:26;;;;;;;14.87;10.55;;;;;;;11.51;52.77;99862.27;1697706;82;21025;-40
2021/11/07 09:50:51;;;;;;;13.18;9.68;;;;;;;11.72;52.57;99861.41;1731896;81;21056;-40
2021/11/07 09:53:18;;;;;;;13.55;9.65;;;;;;;11.91;51.71;99860.64;1710638;83;21068;-40
2021/11/07 09:55:47;;;;;;;14.20;9.70;;;;;;;12.06;51.26;99845.43;1729223;83;21137;-41
2021/11/07 09:58:15;;;;;;;13.30;10.60;;;;;;;12.21;51.62;99847.30;1712992;83;21041;-40
2021/11/07 10:00:47;;;;;;;13.93;10.10;;;;;;;12.40;50.06;99851.36;1708934;82;21295;-41
2021/11/07 10:03:17;;;;;;;12.05;9.10;;;;;;;12.52;49.65;99858.02;1706996;83;21669;-41
2021/11/07 10:05:47;;;;;;;12.28;9.63;;;;;;;12.56;49.35;99854.78;1708362;83;21097;-41
2021/11/07 10:08:15;;;;;;;13.70;9.78;;;;;;;12.67;49.09;99842.75;1714538;83;21106;-40
2021/11/07 10:11:01;;;;;;;10.75;9.05;;;;;;;12.74;49.15;99831.19;1718617;83;22209;-41
2021/11/07 10:13:27;;;;;;;11.53;8.83;;;;;;;12.81;48.63;99834.84;1712814;83;21437;-41
2021/11/07 10:16:07;;;;;;;11.00;9.10;;;;;;;12.89;48.58;99831.65;1716010;83;21073;-40
2021/11/07 10:19:00;;;;;;;13.18;9.58;;;;;;;13.00;48.31;99833.98;1715058;83;21684;-41
2021/11/07 10:21:28;;;;;;;13.75;9.15;;;;;;;13.05;47.57;99826.88;1715411;83;21114;-41
2021/11/07 10:24:16;;;;;;;11.68;9.18;;;;;;;13.03;47.64;99827.23;1710232;83;21582;-41
2021/11/07 10:26:45;;;;;;;12.50;8.83;;;;;;;13.07;47.60;99828.06;1717369;82;21031;-40
2021/11/07 10:29:36;;;;;;;12.88;9.48;;;;;;;13.06;46.93;99825.73;1687548;83;21054;-41
2021/11/07 10:34:55;;;;;;;11.18;8.20;;;;;;;12.85;47.70;99829.45;1672834;85;21120;-40
2021/11/07 10:41:03;;;;;;;11.05;8.33;;;;;;;12.77;47.20;99826.40;1674327;84;21533;-41
2021/11/07 10:48:26;;;;;;;;;;;;;;;12.69;48.19;99797.48;1720523;82;21144;-41
2021/11/07 10:53:31;;;;;;;13.58;9.75;;;;;;;12.89;48.33;99782.09;1675919;82;21016;-40
2021/11/07 10:56:03;;;;;;;12.45;9.35;;;;;;;13.06;47.39;99789.77;1720321;83;21084;-41
2021/11/07 10:58:37;;;;;;;10.65;8.88;;;;;;;13.15;47.55;99800.43;1720388;83;21538;-40
2021/11/07 11:01:08;;;;;;;9.60;7.87;;;;;;;13.19;46.75;99799.91;1715232;83;21096;-41
2021/11/07 11:03:43;;;;;;;9.00;7.20;;;;;;;13.14;46.53;99785.24;1688717;83;21031;-40
2021/11/07 11:06:14;;;;;;;10.70;7.00;;;;;;;12.93;46.76;99782.14;1720047;83;21583;-41
2021/11/07 11:11:34;;;;;;;9.28;6.85;;;;;;;12.40;47.69;99796.98;1721722;83;21511;-41
2021/11/07 11:17:03;;;;;;;9.13;6.70;;;;;;;11.93;48.86;99758.41;1721585;82;20973;-40
2021/11/07 11:20:00;;;;;;;10.13;6.47;;;;;;;11.80;49.19;99754.28;1685427;85;21510;-40
2021/11/07 11:22:47;;;;;;;10.35;7.20;;;;;;;11.65;50.23;99741.73;1685632;83;21032;-39
2021/11/07 11:35:43;;;;;;;12.82;8.38;;;;;;;11.60;51.01;99735.23;1686665;85;21724;-39
2021/11/07 11:43:23;;;;;;;8.65;7.40;;;;;;;11.71;50.21;99718.56;1712411;83;21013;-40
2021/11/07 11:45:54;;;;;;;12.53;8.93;;;;;;;11.65;50.23;99721.38;1689407;85;21048;-40
2021/11/07 11:51:42;;;;;;;10.70;8.25;;;;;;;11.58;50.78;99715.78;1665244;84;21014;-40
2021/11/07 12:00:17;;;;;;;10.65;7.85;;;;;;;11.42;50.29;99712.36;1752215;81;20938;-40
2021/11/07 12:02:56;;;;;;;10.38;7.90;;;;;;;11.31;50.53;99703.20;1755337;81;21016;-39
2021/11/07 12:05:25;;;;;;;;;;;;;;;11.23;50.51;99697.41;1728244;82;21040;-40
2021/11/07 12:08:19;;;;;;;9.43;7.00;;;;;;;11.16;50.76;99687.19;1750028;81;21066;-40
2021/11/07 12:10:55;;;;;;;9.50;7.78;;;;;;;11.05;50.90;99684.80;1754689;81;20996;-39
2021/11/07 12:13:57;;;;;;;15.88;10.30;;;;;;;11.01;51.33;99694.79;1755989;81;21476;-40
2021/11/07 12:16:22;;;;;;;15.72;10.85;;;;;;;10.95;51.51;99685.34;1738377;81;21041;-40
2021/11/07 12:19:04;;;;;;;14.60;9.95;;;;;;;10.87;52.02;99670.85;1710199;83;20999;-40
2021/11/07 12:21:58;;;;;;;14.63;9.75;;;;;;;10.81;52.01;99672.25;1726528;83;21077;-40
2021/11/07 12:24:33;;;;;;;13.45;8.73;;;;;;;10.75;52.30;99669.59;1691720;83;20996;-40
2021/11/07 12:27:21;;;;;;;12.00;8.73;;;;;;;10.68;52.28;99679.50;1687544;83;21048;-38
2021/11/07 12:29:53;;;;;;;13.10;7.90;;;;;;;10.61;52.52;99669.83;1670621;85;21606;-40
2021/11/07 12:32:23;;;;;;;11.83;7.58;;;;;;;10.55;52.87;99658.48;1681347;84;21554;-40
2021/11/07 12:35:12;;;;;;;11.35;7.78;;;;;;;10.53;53.20;99650.48;1651973;85;22120;-40
2021/11/07 12:40:50;;;;;;;9.28;7.70;;;;;;;10.55;53.68;99653.64;1674852;84;21042;-40
2021/11/07 12:43:24;;;;;;;10.43;8.15;;;;;;;10.54;53.70;99646.07;1682877;84;21074;-40
2021/11/07 12:45:55;;;;;;;11.83;8.00;;;;;;;10.54;53.78;99651.49;1716182;83;21056;-40
2021/11/07 12:48:49;;;;;;;14.38;9.23;;;;;;;10.53;54.21;99650.48;1687567;85;21113;-40
2021/11/07 12:51:23;;;;;;;12.88;8.70;;;;;;;10.49;54.31;99639.56;1687570;84;20972;-39
2021/11/07 12:54:09;;;;;;;11.03;8.73;;;;;;;10.43;54.56;99632.83;1690132;84;21032;-39
2021/11/07 12:57:07;;;;;;;11.73;8.60;;;;;;;10.39;54.73;99634.67;1690410;84;21572;-40
2021/11/07 12:59:48;;;;;;;12.00;8.88;;;;;;;10.34;54.96;99622.73;1683995;84;21057;-40
2021/11/07 13:02:28;;;;;;;12.15;8.80;;;;;;;10.25;55.01;99614.00;1662105;86;21918;-41
2021/11/07 13:05:01;;;;;;;13.25;9.45;;;;;;;10.18;55.42;99611.91;1672579;84;21024;-40
2021/11/07 13:07:44;;;;;;;12.20;8.38;;;;;;;10.12;55.55;99618.69;1674072;85;21009;-40
2021/11/07 13:10:18;;;;;;;10.68;8.55;;;;;;;10.04;55.64;99613.67;1674199;85;28785;-40
2021/11/07 13:12:48;;;;;;;11.63;8.68;;;;;;;9.98;55.95;99610.99;1673753;85;21067;-40
2021/11/07 13:30:15;;;;;;;10.08;7.15;;;;;;;9.79;55.13;99565.42;1707355;83;21199;-40
2021/11/07 13:34:37;;;;;;;9.95;6.58;;;;;;;9.74;55.26;99561.06;1709946;83;21591;-40
2021/11/07 13:37:05;;;;;;;10.40;6.83;;;;;;;9.74;55.23;99545.38;1691040;83;21101;-40
2021/11/07 13:39:36;;;;;;;8.30;6.65;;;;;;;9.76;55.05;99537.70;1681506;85;21125;-40
2021/11/07 13:42:13;;;;;;;8.45;5.65;;;;;;;9.75;55.09;99534.77;1681719;85;21118;-40
2021/11/07 13:44:54;;;;;;;8.63;6.30;;;;;;;9.74;55.03;99531.28;1696041;84;21000;-40